aviador You're here:

PPIZ Decoded Metar

POINT LAY in AK, USA
Report Time2017-11-20 20:56:00
UTC Time2017-11-20 21:17:58
Flight Rules vfr VFR
Wind110° at 05 kt
W.Decomp.*RWY 05: 3.5 kt HW 3.5 kt RCW
W.Rank110° ranks 22
Current wind is below 110° avg. (8.4)
Visibility9999 m
Phenomena:N/A
Clouds:N/A
Expected CloudBase > 1,200 ft AGL from Temp-Dew spread
CeilingNone
Temp-20°C (ISA -35)
Dew Point-23°C (77% RH)
AAT-25.5°C
QNH1018 hPa
Density Alt-4,613 ft
Elevation26 ft
Report Wrong Elevation
Raw Report
PPIZ 202056Z AUTO 11005KT 10SM CLR M20/M23 A3005 RMK AO2 SLP180
T12001233 58015 FZRANO TSNO=

Extra information for PPIZ:More info

Metar Taf Metar & Taf Last 4 Metars F.Rules Stats Wind Profile Meteogram Temp Stats Airport Information Weather charts Add Link Nearby VenuesMetar ALERT Operation Metar Decoded Social comments

AIRNAV info for PPIZ